createdAt,value
2019-03-25T00:02:09.213Z,5.00
2019-03-25T00:04:39.588Z,5.00
2019-03-25T00:07:09.681Z,5.00
2019-03-25T00:09:39.892Z,5.00
2019-03-25T00:12:10.232Z,5.00
2019-03-25T00:14:40.290Z,5.00
2019-03-25T00:17:10.495Z,5.00
2019-03-25T00:19:40.829Z,5.00
2019-03-25T00:22:10.956Z,5.00
2019-03-25T00:24:41.064Z,5.00
2019-03-25T00:27:11.397Z,4.90
2019-03-25T00:29:42.266Z,4.90
2019-03-25T00:32:12.391Z,5.00
2019-03-25T00:34:42.516Z,5.00
2019-03-25T00:37:12.621Z,5.00
2019-03-25T00:39:42.706Z,5.10
2019-03-25T00:42:12.795Z,5.10
2019-03-25T00:44:42.847Z,5.20
2019-03-25T00:47:12.929Z,5.20
2019-03-25T00:49:43.079Z,5.20
2019-03-25T00:52:13.204Z,5.30
2019-03-25T00:54:49.929Z,5.30
2019-03-25T00:57:15.209Z,5.30
2019-03-25T00:59:45.305Z,5.30
2019-03-25T01:02:15.529Z,5.30
2019-03-25T01:04:45.774Z,5.30
2019-03-25T01:07:15.961Z,5.40
2019-03-25T01:09:46.481Z,5.40
2019-03-25T01:12:16.849Z,5.40
2019-03-25T01:14:47.136Z,5.40
2019-03-25T01:17:17.548Z,5.40
2019-03-25T01:19:48.650Z,5.40
2019-03-25T01:22:18.850Z,5.40
2019-03-25T01:25:00.916Z,5.40
2019-03-25T01:27:22.102Z,5.40
2019-03-25T01:29:52.141Z,5.40
2019-03-25T01:32:22.523Z,5.30
2019-03-25T01:34:52.755Z,5.30
2019-03-25T01:37:23.114Z,5.20
2019-03-25T01:39:54.499Z,5.20
2019-03-25T01:42:25.483Z,5.10
2019-03-25T01:44:55.737Z,5.10
2019-03-25T01:47:26.056Z,5.00
2019-03-25T01:49:56.430Z,5.00
2019-03-25T01:52:26.540Z,5.00
2019-03-25T01:54:56.812Z,4.90
2019-03-25T01:57:27.373Z,4.90
2019-03-25T01:59:57.681Z,4.90
2019-03-25T02:02:27.704Z,4.90
2019-03-25T02:04:57.784Z,4.90
2019-03-25T02:07:27.867Z,4.90
2019-03-25T02:09:57.942Z,4.80
2019-03-25T02:12:28.021Z,4.90
2019-03-25T02:14:58.316Z,4.90
2019-03-25T02:17:28.483Z,5.00
2019-03-25T02:19:58.548Z,5.10
2019-03-25T02:22:28.804Z,5.10
2019-03-25T02:24:58.985Z,5.20
2019-03-25T02:27:29.060Z,5.20
2019-03-25T02:29:59.132Z,5.30
2019-03-25T02:32:29.554Z,5.30
2019-03-25T02:34:59.906Z,5.40
2019-03-25T02:37:29.921Z,5.30
2019-03-25T02:40:00.087Z,5.30
2019-03-25T02:42:30.253Z,5.40
2019-03-25T02:45:00.424Z,5.40
2019-03-25T02:47:30.852Z,5.40
2019-03-25T02:50:00.947Z,5.40
2019-03-25T02:52:34.749Z,5.40
2019-03-25T02:55:05.355Z,5.50
2019-03-25T02:57:35.439Z,5.60
2019-03-25T03:00:08.126Z,5.60
2019-03-25T03:02:38.229Z,5.70
2019-03-25T03:05:08.485Z,5.80
2019-03-25T03:07:38.617Z,5.90
2019-03-25T03:10:09.585Z,5.90
2019-03-25T03:12:39.647Z,6.10
2019-03-25T03:15:09.976Z,6.10
2019-03-25T03:17:40.109Z,6.20
2019-03-25T03:20:13.283Z,6.30
2019-03-25T03:22:43.420Z,6.30
2019-03-25T03:25:13.604Z,6.40
2019-03-25T03:27:43.676Z,6.40
2019-03-25T03:30:14.103Z,6.40
2019-03-25T03:32:44.169Z,6.50
2019-03-25T03:35:14.240Z,6.50
2019-03-25T03:37:44.346Z,6.50
2019-03-25T03:40:14.450Z,6.60
2019-03-25T03:42:44.567Z,6.60
2019-03-25T03:45:14.631Z,6.60
2019-03-25T03:47:44.614Z,6.70
2019-03-25T03:50:27.650Z,6.70
2019-03-25T03:52:58.249Z,6.80
2019-03-25T03:55:28.660Z,6.80
2019-03-25T03:58:00.233Z,6.80
2019-03-25T04:00:35.134Z,6.80
2019-03-25T04:03:05.201Z,6.80
2019-03-25T04:05:35.301Z,6.80
2019-03-25T04:08:05.374Z,6.80
2019-03-25T04:10:35.561Z,6.80
2019-03-25T04:13:05.846Z,6.90
2019-03-25T04:15:35.913Z,6.90
2019-03-25T04:18:06.135Z,6.90
2019-03-25T04:20:39.034Z,6.90
2019-03-25T04:23:09.034Z,6.90
2019-03-25T04:25:39.345Z,6.90
2019-03-25T04:28:09.517Z,6.90
2019-03-25T04:30:39.824Z,7.00
2019-03-25T04:33:09.924Z,7.00
2019-03-25T04:35:40.059Z,7.00
2019-03-25T04:38:10.391Z,7.00
2019-03-25T04:40:40.412Z,7.00
2019-03-25T04:43:10.707Z,7.00
2019-03-25T04:45:40.884Z,7.00
2019-03-25T04:48:10.956Z,7.00
2019-03-25T04:50:41.086Z,7.00
2019-03-25T04:53:11.263Z,7.00
2019-03-25T04:55:41.407Z,7.00
2019-03-25T04:58:11.656Z,7.00
2019-03-25T05:00:41.887Z,6.90
2019-03-25T05:03:12.545Z,6.90
2019-03-25T05:05:42.900Z,7.00
2019-03-25T05:08:13.078Z,6.90
2019-03-25T05:10:43.191Z,7.00
2019-03-25T05:13:13.283Z,6.90
2019-03-25T05:15:43.367Z,6.90
2019-03-25T05:18:13.456Z,6.90
2019-03-25T05:20:43.740Z,6.90
2019-03-25T05:23:13.998Z,6.90
2019-03-25T05:25:44.101Z,6.90
2019-03-25T05:28:14.295Z,6.90
2019-03-25T05:30:45.518Z,6.90
2019-03-25T05:33:16.236Z,6.80
2019-03-25T05:35:48.351Z,6.70
2019-03-25T05:38:29.606Z,6.70
2019-03-25T05:40:59.906Z,6.60
2019-03-25T05:43:30.064Z,6.60
2019-03-25T05:46:02.412Z,6.60
2019-03-25T05:48:32.586Z,6.60
2019-03-25T05:51:02.746Z,6.50
2019-03-25T05:53:32.891Z,6.40
2019-03-25T05:56:03.203Z,6.00
2019-03-25T05:59:26.298Z,5.50
2019-03-25T06:02:03.945Z,5.10
2019-03-25T06:04:34.502Z,5.00
2019-03-25T06:07:04.844Z,4.90
2019-03-25T06:09:35.280Z,4.90
2019-03-25T06:12:08.540Z,5.00
2019-03-25T06:14:39.510Z,4.90
2019-03-25T06:17:10.139Z,4.90
2019-03-25T06:50:56.567Z,5.60
2019-03-25T06:53:32.128Z,5.70
2019-03-25T06:56:02.723Z,5.70
2019-03-25T06:58:33.248Z,5.70
2019-03-25T07:01:03.550Z,5.80
2019-03-25T07:03:33.924Z,5.80
2019-03-25T07:06:04.442Z,5.90
2019-03-25T07:08:34.798Z,5.90
2019-03-25T07:11:05.297Z,5.90
2019-03-25T07:13:36.112Z,5.90
2019-03-25T07:16:06.570Z,6.00
2019-03-25T07:18:37.071Z,6.10
2019-03-25T07:21:07.411Z,6.20
2019-03-25T07:23:37.915Z,6.30
2019-03-25T07:26:08.221Z,6.40
2019-03-25T07:28:38.816Z,6.50
2019-03-25T07:31:09.303Z,6.60
2019-03-25T07:33:45.174Z,6.60
2019-03-25T07:36:17.779Z,6.60
2019-03-25T07:38:48.011Z,6.60
2019-03-25T07:41:18.243Z,6.60
2019-03-25T07:43:53.113Z,6.60
2019-03-25T07:46:23.529Z,6.60
2019-03-25T07:48:53.804Z,6.70
2019-03-25T07:51:24.005Z,6.70
2019-03-25T07:53:57.168Z,6.80
2019-03-25T07:56:27.799Z,6.80
2019-03-25T07:58:58.087Z,6.90
2019-03-25T08:01:28.414Z,7.00
2019-03-25T08:04:01.667Z,7.30
2019-03-25T08:06:31.996Z,7.40
2019-03-25T08:09:04.007Z,7.60
2019-03-25T08:11:34.303Z,7.60
2019-03-25T08:14:04.563Z,7.40
2019-03-25T08:16:34.837Z,7.30
2019-03-25T08:19:05.030Z,7.30
2019-03-25T08:21:35.292Z,7.30
2019-03-25T08:24:05.522Z,7.30
2019-03-25T08:26:36.209Z,7.40
2019-03-25T08:29:06.515Z,7.30
2019-03-25T08:31:38.146Z,7.30
2019-03-25T08:34:08.372Z,7.30
2019-03-25T08:36:38.598Z,7.40
2019-03-25T08:39:09.007Z,7.30
2019-03-25T08:41:39.266Z,7.30
2019-03-25T08:44:09.513Z,7.30
2019-03-25T08:46:39.844Z,7.40
2019-03-25T08:49:12.013Z,7.50
2019-03-25T08:51:42.546Z,7.50
2019-03-25T08:54:12.970Z,7.50
2019-03-25T08:56:43.229Z,7.50
2019-03-25T08:59:13.522Z,7.60
2019-03-25T09:01:43.900Z,7.60
2019-03-25T09:04:16.019Z,7.70
2019-03-25T09:06:47.921Z,7.70
2019-03-25T09:09:21.564Z,7.70
2019-03-25T09:11:51.946Z,7.80
2019-03-25T09:14:22.202Z,7.60
2019-03-25T09:16:52.592Z,7.60
2019-03-25T09:19:25.564Z,7.80
2019-03-25T09:21:58.443Z,7.90
2019-03-25T09:24:28.660Z,8.00
2019-03-25T09:26:58.913Z,8.00
2019-03-25T09:29:29.183Z,8.00
2019-03-25T09:31:59.425Z,8.10
2019-03-25T09:34:29.768Z,8.00
2019-03-25T09:36:59.998Z,7.80
2019-03-25T09:39:30.430Z,7.80
2019-03-25T09:42:01.017Z,7.80
2019-03-25T09:44:31.354Z,7.90
2019-03-25T09:47:01.874Z,7.90
2019-03-25T09:49:32.196Z,8.10
2019-03-25T09:52:02.359Z,8.30
2019-03-25T09:54:32.640Z,8.60
2019-03-25T09:57:02.956Z,8.60
2019-03-25T09:59:35.543Z,8.70
2019-03-25T10:02:06.745Z,8.80
2019-03-25T10:04:37.135Z,9.00
2019-03-25T10:07:07.417Z,9.00
2019-03-25T10:09:38.174Z,8.90
2019-03-25T10:12:08.496Z,9.10
2019-03-25T10:14:38.714Z,9.20
2019-03-25T10:17:09.003Z,9.10
2019-03-25T10:19:47.101Z,9.00
2019-03-25T10:22:19.736Z,9.20
2019-03-25T10:24:52.487Z,9.40
2019-03-25T10:27:24.398Z,9.70
2019-03-25T10:30:10.410Z,9.90
2019-03-25T10:32:40.602Z,10.50
2019-03-25T10:35:11.121Z,12.20
2019-03-25T10:37:41.701Z,12.50
2019-03-25T10:40:12.157Z,13.10
2019-03-25T10:42:42.337Z,12.00
2019-03-25T10:45:13.079Z,12.60
2019-03-25T10:47:43.285Z,14.10
2019-03-25T10:50:13.896Z,14.00
2019-03-25T10:52:44.187Z,13.10
2019-03-25T10:55:14.567Z,12.30
2019-03-25T10:57:44.788Z,11.50
2019-03-25T11:00:15.901Z,10.20
2019-03-25T11:02:46.693Z,8.90
2019-03-25T11:05:17.043Z,8.90
2019-03-25T11:07:47.359Z,10.60
2019-03-25T11:10:17.830Z,11.10
2019-03-25T11:12:47.993Z,11.10
2019-03-25T11:15:18.757Z,10.70
2019-03-25T11:17:48.941Z,10.10
2019-03-25T11:20:19.537Z,9.40
2019-03-25T11:22:53.994Z,8.90
2019-03-25T11:25:25.222Z,10.60
2019-03-25T11:27:56.485Z,13.40
2019-03-25T11:31:03.080Z,16.10
2019-03-25T11:33:33.391Z,17.50
2019-03-25T11:36:06.654Z,17.00
2019-03-25T11:38:37.039Z,15.60
2019-03-25T11:41:07.315Z,15.50
2019-03-25T11:43:37.528Z,15.60
2019-03-25T11:46:14.414Z,16.90
2019-03-25T11:48:44.595Z,16.60
2019-03-25T11:51:14.984Z,14.90
2019-03-25T11:53:46.023Z,15.00
2019-03-25T11:56:16.208Z,15.70
2019-03-25T11:58:46.511Z,16.90
2019-03-25T12:01:16.682Z,18.70
2019-03-25T12:03:46.920Z,18.80
2019-03-25T12:06:17.105Z,19.70
2019-03-25T12:08:47.544Z,19.60
2019-03-25T12:11:17.842Z,19.00
2019-03-25T12:13:48.084Z,15.10
2019-03-25T12:16:18.530Z,13.30
2019-03-25T12:18:48.705Z,11.40
2019-03-25T12:21:18.864Z,10.30
2019-03-25T12:23:49.357Z,9.70
2019-03-25T12:26:19.507Z,9.30
2019-03-25T12:28:49.949Z,9.30
2019-03-25T12:31:20.220Z,9.30
2019-03-25T12:33:50.658Z,9.50
2019-03-25T12:36:20.790Z,10.00
2019-03-25T12:38:51.205Z,10.20
2019-03-25T12:41:21.659Z,11.90
2019-03-25T12:43:51.919Z,14.10
2019-03-25T12:46:22.194Z,17.60
2019-03-25T12:48:52.385Z,20.70
2019-03-25T12:51:22.612Z,19.10
2019-03-25T12:53:52.948Z,15.90
2019-03-25T12:56:23.115Z,12.30
2019-03-25T12:58:53.389Z,13.60
2019-03-25T13:01:23.585Z,16.70
2019-03-25T13:03:53.747Z,15.80
2019-03-25T13:06:24.206Z,14.50
2019-03-25T13:08:54.400Z,13.40
2019-03-25T13:11:24.800Z,12.70
2019-03-25T13:13:55.217Z,11.70
2019-03-25T13:16:25.484Z,10.90
2019-03-25T13:18:56.695Z,11.20
2019-03-25T13:21:27.318Z,11.90
2019-03-25T13:23:58.054Z,11.60
2019-03-25T13:26:28.950Z,11.00
2019-03-25T13:29:02.313Z,10.50
2019-03-25T13:31:33.355Z,9.50
2019-03-25T13:34:03.586Z,8.20
2019-03-25T13:36:33.981Z,8.00
2019-03-25T13:39:05.846Z,9.70
2019-03-25T13:41:36.312Z,11.70
2019-03-25T13:44:06.607Z,14.20
2019-03-25T13:46:37.230Z,17.50
2019-03-25T13:49:07.458Z,20.20
2019-03-25T13:51:37.627Z,22.60
2019-03-25T13:54:07.900Z,24.10
2019-03-25T13:56:38.097Z,23.40
2019-03-25T13:59:08.587Z,21.50
2019-03-25T14:01:38.890Z,20.40
2019-03-25T14:04:09.005Z,21.00
2019-03-25T14:06:39.339Z,20.40
2019-03-25T14:09:09.622Z,20.20
2019-03-25T14:11:39.950Z,19.10
2019-03-25T14:14:10.364Z,18.70
2019-03-25T14:16:40.746Z,20.20
2019-03-25T14:19:11.322Z,21.80
2019-03-25T14:21:41.825Z,23.00
2019-03-25T14:24:12.214Z,21.10
2019-03-25T14:26:43.069Z,18.00
2019-03-25T14:29:13.605Z,15.30
2019-03-25T14:31:43.942Z,13.50
2019-03-25T14:34:14.991Z,13.40
2019-03-25T14:36:45.522Z,12.70
2019-03-25T14:39:16.952Z,12.10
2019-03-25T14:41:48.275Z,11.80
2019-03-25T14:44:30.927Z,11.30
2019-03-25T14:47:01.707Z,10.70
2019-03-25T14:49:32.316Z,10.30
2019-03-25T14:52:03.088Z,9.80
2019-03-25T14:54:33.542Z,9.60
2019-03-25T14:57:04.097Z,9.40
2019-03-25T14:59:34.906Z,9.30
2019-03-25T15:02:05.664Z,9.10
2019-03-25T15:04:36.209Z,7.90
2019-03-25T15:07:06.861Z,7.10
2019-03-25T15:09:37.487Z,6.60
2019-03-25T15:12:08.077Z,6.30
2019-03-25T15:14:38.894Z,6.40
2019-03-25T15:17:09.741Z,6.40
2019-03-25T15:19:40.658Z,6.40
2019-03-25T15:22:11.208Z,6.40
2019-03-25T15:24:42.815Z,6.10
2019-03-25T15:27:13.303Z,5.50
2019-03-25T15:29:44.042Z,5.40
2019-03-25T15:32:14.776Z,5.40
2019-03-25T15:34:45.374Z,5.40
2019-03-25T15:37:15.993Z,5.50
2019-03-25T15:39:47.270Z,5.40
2019-03-25T15:42:19.820Z,5.70
2019-03-25T15:44:57.798Z,6.30
2019-03-25T15:47:34.380Z,7.30
2019-03-25T15:50:11.489Z,7.30
2019-03-25T15:52:46.149Z,7.10
2019-03-25T15:55:17.280Z,7.30
2019-03-25T15:57:48.699Z,7.80
2019-03-25T16:00:21.639Z,8.80
2019-03-25T16:02:54.461Z,8.30
2019-03-25T16:05:27.060Z,7.90
2019-03-25T16:07:57.719Z,7.60
2019-03-25T16:10:28.256Z,7.60
2019-03-25T16:12:58.849Z,7.40
2019-03-25T16:15:40.647Z,7.30
2019-03-25T16:18:18.081Z,7.30
2019-03-25T16:20:48.846Z,7.30
2019-03-25T16:23:19.887Z,7.20
2019-03-25T16:25:50.453Z,7.20
2019-03-25T16:28:21.374Z,7.10
2019-03-25T16:30:58.571Z,7.10
2019-03-25T16:33:25.844Z,7.10
2019-03-25T16:36:05.150Z,7.20
2019-03-25T16:38:35.825Z,7.10
2019-03-25T16:41:06.747Z,7.10
2019-03-25T16:43:37.473Z,6.80
2019-03-25T16:46:08.304Z,6.70
2019-03-25T16:48:38.913Z,6.70
2019-03-25T16:51:09.830Z,6.80
2019-03-25T16:53:40.555Z,6.90
2019-03-25T16:56:11.400Z,7.10
2019-03-25T16:58:41.946Z,7.10
2019-03-25T17:01:12.446Z,7.10
2019-03-25T17:03:43.058Z,7.10
2019-03-25T17:06:13.987Z,7.20
2019-03-25T17:08:44.665Z,7.20
2019-03-25T17:11:15.207Z,7.30
2019-03-25T17:13:46.791Z,7.40
2019-03-25T17:16:18.639Z,7.50
2019-03-25T17:18:49.276Z,7.60
2019-03-25T17:21:19.982Z,7.60
2019-03-25T17:23:50.630Z,7.60
2019-03-25T17:26:21.347Z,7.60
2019-03-25T17:28:53.012Z,7.60
2019-03-25T17:31:23.721Z,7.60
2019-03-25T17:33:54.248Z,7.60
2019-03-25T17:36:24.777Z,7.60
2019-03-25T17:38:55.480Z,7.60
2019-03-25T17:41:26.590Z,7.60
2019-03-25T17:43:57.213Z,7.60
2019-03-25T17:46:27.886Z,7.60
2019-03-25T17:48:58.604Z,7.50
2019-03-25T17:51:29.868Z,7.50
2019-03-25T17:54:00.560Z,7.40
2019-03-25T17:56:31.100Z,7.50
2019-03-25T17:59:02.343Z,7.40
2019-03-25T18:01:37.376Z,7.30
2019-03-25T18:04:08.158Z,7.20
2019-03-25T18:06:38.797Z,7.20
2019-03-25T18:09:10.965Z,7.20
2019-03-25T18:11:41.634Z,7.20
2019-03-25T18:14:12.303Z,7.20
2019-03-25T18:16:42.984Z,7.20
2019-03-25T18:19:15.189Z,7.20
2019-03-25T18:21:46.091Z,7.20
2019-03-25T18:24:16.899Z,7.30
2019-03-25T18:26:47.553Z,7.30
2019-03-25T18:29:18.068Z,7.40
2019-03-25T18:31:48.522Z,7.40
2019-03-25T18:34:19.087Z,7.40
2019-03-25T18:36:49.611Z,7.50
2019-03-25T18:39:20.111Z,7.50
2019-03-25T18:41:50.805Z,7.50
2019-03-25T18:44:21.492Z,7.50
2019-03-25T18:46:52.254Z,7.60
2019-03-25T18:49:23.011Z,7.60
2019-03-25T18:51:54.051Z,7.60
2019-03-25T18:54:24.632Z,7.50
2019-03-25T18:56:55.257Z,7.50
2019-03-25T18:59:26.051Z,7.50
2019-03-25T19:01:56.602Z,7.50
2019-03-25T19:04:27.491Z,7.50
2019-03-25T19:06:58.385Z,7.50
2019-03-25T19:09:29.634Z,7.60
2019-03-25T19:12:00.752Z,7.60
2019-03-25T19:14:31.404Z,7.60
2019-03-25T19:17:02.031Z,7.60
2019-03-25T19:19:32.465Z,7.60
2019-03-25T19:22:05.339Z,7.70
2019-03-25T19:24:35.820Z,7.70
2019-03-25T19:27:06.290Z,7.70
2019-03-25T19:29:36.749Z,7.80
2019-03-25T19:32:07.376Z,7.80
2019-03-25T19:34:37.991Z,7.70
2019-03-25T19:37:08.397Z,7.70
2019-03-25T19:39:39.073Z,7.80
2019-03-25T19:42:09.760Z,7.70
2019-03-25T19:44:40.179Z,7.60
2019-03-25T19:47:10.753Z,7.60
2019-03-25T19:49:41.443Z,7.60
2019-03-25T19:52:13.483Z,7.50
2019-03-25T19:54:44.080Z,7.50
2019-03-25T19:57:15.896Z,7.40
2019-03-25T19:59:46.447Z,7.40
2019-03-25T20:02:19.260Z,7.40
2019-03-25T20:04:52.325Z,7.40
2019-03-25T20:07:22.776Z,7.30
2019-03-25T20:09:53.297Z,7.30
2019-03-25T20:12:23.795Z,7.30
2019-03-25T20:14:54.416Z,7.30
2019-03-25T20:17:24.877Z,7.30
2019-03-25T20:19:55.359Z,7.30
2019-03-25T20:22:25.918Z,7.30
2019-03-25T20:24:56.375Z,7.40
2019-03-25T20:27:26.914Z,7.40
2019-03-25T20:29:57.491Z,7.40
2019-03-25T20:32:31.947Z,7.40
2019-03-25T20:35:00.371Z,7.40
2019-03-25T20:37:31.099Z,7.40
2019-03-25T20:40:01.758Z,7.40
2019-03-25T20:42:32.391Z,7.50
2019-03-25T20:45:02.947Z,7.60
2019-03-25T20:47:33.468Z,7.50
2019-03-25T20:50:03.917Z,7.50
2019-03-25T20:52:34.507Z,7.50
2019-03-25T20:55:05.633Z,7.60
2019-03-25T20:57:36.275Z,7.60
2019-03-25T21:00:08.651Z,7.60
2019-03-25T21:02:45.013Z,7.60
2019-03-25T21:05:11.233Z,7.60
2019-03-25T21:07:41.779Z,7.60
2019-03-25T21:10:12.482Z,7.60
2019-03-25T21:12:42.946Z,7.60
2019-03-25T21:15:13.499Z,7.50
2019-03-25T21:17:44.009Z,7.50
2019-03-25T21:20:14.620Z,7.40
2019-03-25T21:22:45.068Z,7.50
2019-03-25T21:25:15.427Z,7.50
2019-03-25T21:27:46.071Z,7.60
2019-03-25T21:30:16.786Z,7.60
2019-03-25T21:32:57.654Z,7.60
2019-03-25T21:35:19.638Z,7.60
2019-03-25T21:37:50.118Z,7.60
2019-03-25T21:40:20.577Z,7.50
2019-03-25T21:42:50.954Z,7.50
2019-03-25T21:45:21.383Z,7.40
2019-03-25T21:47:51.899Z,7.40
2019-03-25T21:50:22.106Z,7.40
2019-03-25T21:52:52.664Z,7.30
2019-03-25T21:55:23.116Z,7.30
2019-03-25T21:57:53.390Z,7.30
2019-03-25T22:00:24.270Z,7.20
2019-03-25T22:02:54.407Z,7.30
2019-03-25T22:05:25.875Z,7.20
2019-03-25T22:07:57.404Z,7.10
2019-03-25T22:10:28.479Z,7.10
2019-03-25T22:12:59.092Z,7.10
2019-03-25T22:15:29.786Z,7.10
2019-03-25T22:18:01.406Z,7.00
2019-03-25T22:20:31.841Z,7.00
2019-03-25T22:23:02.367Z,7.00
2019-03-25T22:25:32.779Z,6.90
2019-03-25T22:28:03.301Z,6.90
2019-03-25T22:30:33.844Z,6.80
2019-03-25T22:33:04.043Z,6.80
2019-03-25T22:35:34.102Z,6.90
2019-03-25T22:38:05.098Z,6.90
2019-03-25T22:40:35.175Z,6.90
2019-03-25T22:43:05.451Z,6.90
2019-03-25T22:45:35.534Z,6.90
2019-03-25T22:48:07.314Z,7.00
2019-03-25T22:50:37.339Z,6.90
2019-03-25T22:53:07.539Z,6.90
2019-03-25T22:55:37.593Z,6.90
2019-03-25T22:58:07.744Z,7.00
2019-03-25T23:00:47.702Z,7.00
2019-03-25T23:03:17.962Z,7.00
2019-03-25T23:05:48.384Z,7.00
2019-03-25T23:08:18.451Z,7.00
2019-03-25T23:10:48.554Z,7.00
2019-03-25T23:13:18.583Z,7.00
2019-03-25T23:15:48.675Z,7.00
2019-03-25T23:18:18.760Z,7.00
2019-03-25T23:20:48.872Z,7.00
2019-03-25T23:23:18.957Z,7.00
2019-03-25T23:25:49.112Z,6.90
2019-03-25T23:28:21.846Z,6.90
2019-03-25T23:30:51.890Z,6.90
2019-03-25T23:33:21.923Z,6.90
2019-03-25T23:35:52.034Z,6.90
2019-03-25T23:38:22.107Z,6.90
2019-03-25T23:40:52.181Z,6.80
2019-03-25T23:43:24.178Z,6.80
2019-03-25T23:45:54.277Z,6.80
2019-03-25T23:48:24.371Z,6.90
2019-03-25T23:50:54.558Z,6.90
2019-03-25T23:53:24.611Z,7.00
2019-03-25T23:55:54.741Z,6.90
2019-03-25T23:58:24.847Z,6.90
